Holland, Texas
Current Conditions -  °F | °C
As of 5:58 PM on Saturday 20 Dec 2014 (Local Time) from KGRK Reporting Station
Overcast Overcast  
Wind Chill: 47°   Ceiling: 2000
Heat Index: 50°   Visibility: 10mi
Dew Point: 44°   Wind: 7mph
Humidity: 81%   Direction: 90°E
Pressure: 30.15"   Gusts: NA
Location:  30.88°N, 97.4°W
Report Text: KGRK 202358Z AUTO 09006KT 10SM OVC020 10/07 A3015 RMK AO2 SLP212 T00990068 10109 20093 55001
Loading
Personal Weather Stations






























Interactive Weather Map New forecast layout! Learn more

10-Day Weather Forecast

Advertisements
Track Severe Weather on mobile